Time;durP1;ratioP1;P1;durP2;ratioP2;P2;SDS_P1;SDS_P2;PMS_P1;PMS_P2;Temp;Humidity;BMP_temperature;BMP_pressure;BME280_temperature;BME280_humidity;BME280_pressure;Samples;Min_cycle;Max_cycle;Signal;HPM_P1;HPM_P2
2022/04/22 00:02:08;;;;;;;0.28;0.28;;;;;;;14.93;53.54;101112.41;4999131;28;20160;-83
2022/04/22 00:04:34;;;;;;;0.00;0.00;;;;;;;14.85;53.65;101110.03;4999692;28;20036;-84
2022/04/22 00:07:01;;;;;;;0.20;0.20;;;;;;;14.79;53.78;101107.56;4998622;28;20512;-84
2022/04/22 00:09:27;;;;;;;0.20;0.20;;;;;;;14.76;54.12;101106.78;4998497;28;20050;-84
2022/04/22 00:11:53;;;;;;;0.10;0.10;;;;;;;14.71;53.48;101112.25;4997686;28;20126;-84
2022/04/22 00:14:19;;;;;;;0.10;0.10;;;;;;;14.64;54.24;101113.34;4997071;28;20058;-83
2022/04/22 00:16:45;;;;;;;0.10;0.10;;;;;;;14.59;53.98;101110.81;4998125;28;20117;-83
2022/04/22 00:19:11;;;;;;;0.10;0.10;;;;;;;14.56;53.89;101111.78;4994860;28;20088;-83
2022/04/22 00:21:41;;;;;;;0.20;0.20;;;;;;;14.52;54.88;101114.63;4994782;28;20101;-83
2022/04/22 00:24:08;;;;;;;0.10;0.10;;;;;;;14.51;54.66;101104.88;4995669;28;20557;-84
2022/04/22 00:26:34;;;;;;;0.57;0.57;;;;;;;14.49;54.65;101098.72;4998523;28;20409;-84
2022/04/22 00:29:00;;;;;;;0.00;0.00;;;;;;;14.46;54.98;101105.03;4995770;28;20109;-83
2022/04/22 00:31:27;;;;;;;0.20;0.20;;;;;;;14.44;54.66;101106.00;4995949;28;20030;-83
2022/04/22 00:33:53;;;;;;;0.08;0.08;;;;;;;14.40;54.79;101102.56;4996693;28;20034;-84
2022/04/22 00:36:19;;;;;;;0.00;0.00;;;;;;;14.33;54.61;101106.31;4994712;28;20030;-84
2022/04/22 00:38:45;;;;;;;0.08;0.08;;;;;;;14.29;54.94;101108.22;5003112;28;20101;-84
2022/04/22 00:41:11;;;;;;;0.03;0.03;;;;;;;14.24;54.99;101103.03;5007892;28;20041;-83
2022/04/22 00:43:44;;;;;;;0.00;0.00;;;;;;;14.22;54.86;101106.69;4996527;28;20486;-85
2022/04/22 00:46:10;;;;;;;;;;;;;;;14.29;54.68;101105.53;4995499;28;20025;-83
2022/04/22 00:48:37;;;;;;;0.15;0.15;;;;;;;14.16;55.23;101105.06;4996389;28;19913;-83
2022/04/22 00:51:08;;;;;;;0.10;0.10;;;;;;;14.15;55.25;101097.97;4995768;28;20120;-84
2022/04/22 00:53:35;;;;;;;0.10;0.10;;;;;;;14.12;55.38;101100.75;5002657;28;20477;-83
2022/04/22 00:56:04;;;;;;;0.00;0.00;;;;;;;14.12;55.19;101097.19;5001047;28;20417;-84
2022/04/22 00:58:31;;;;;;;0.40;0.30;;;;;;;14.10;54.87;101099.91;4996153;28;20061;-83
2022/04/22 01:00:57;;;;;;;0.00;0.00;;;;;;;14.05;54.95;101096.53;5002525;28;20037;-84
2022/04/22 01:03:23;;;;;;;1.30;1.05;;;;;;;13.99;54.98;101096.72;4996240;28;20122;-83
2022/04/22 01:11:31;;;;;;;0.20;0.20;;;;;;;13.84;55.13;101087.41;4995361;28;20036;-83
2022/04/22 01:13:58;;;;;;;0.00;0.00;;;;;;;13.80;55.22;101083.94;4997754;28;20503;-84
2022/04/22 01:16:25;;;;;;;0.40;0.40;;;;;;;13.73;55.65;101079.72;5000038;28;20042;-84
2022/04/22 01:18:52;;;;;;;0.10;0.10;;;;;;;13.68;55.57;101076.31;5000909;28;20034;-84
2022/04/22 01:21:19;;;;;;;0.20;0.20;;;;;;;13.63;56.28;101073.78;4998338;28;20399;-84
2022/04/22 01:23:45;;;;;;;0.10;0.10;;;;;;;13.61;55.50;101072.09;4998024;28;20042;-83
2022/04/22 01:26:13;;;;;;;0.00;0.00;;;;;;;13.58;55.58;101070.38;4997196;28;20438;-83
2022/04/22 01:28:39;;;;;;;0.32;0.32;;;;;;;13.56;56.25;101073.09;4994430;28;20025;-83
2022/04/22 01:31:05;;;;;;;0.10;0.10;;;;;;;13.55;56.06;101070.47;4996485;28;20026;-84
2022/04/22 01:33:32;;;;;;;0.00;0.00;;;;;;;13.53;55.97;101072.31;4997154;28;20034;-84
2022/04/22 01:35:58;;;;;;;0.10;0.10;;;;;;;13.49;56.18;101074.19;4996932;28;20049;-83
2022/04/22 01:38:25;;;;;;;0.00;0.00;;;;;;;13.47;56.04;101068.06;4995964;28;20073;-83
2022/04/22 01:40:51;;;;;;;0.00;0.00;;;;;;;13.44;56.72;101065.47;4997195;28;20507;-83
2022/04/22 01:43:17;;;;;;;0.00;0.00;;;;;;;13.43;56.82;101074.34;4995106;28;20040;-83
2022/04/22 01:45:44;;;;;;;0.10;0.10;;;;;;;13.40;56.78;101079.78;4994282;28;20038;-84
2022/04/22 01:48:10;;;;;;;0.10;0.10;;;;;;;13.39;56.56;101070.03;4998583;28;20154;-84
2022/04/22 01:50:36;;;;;;;0.08;0.08;;;;;;;13.36;56.73;101075.44;4995486;28;20430;-84
2022/04/22 01:53:03;;;;;;;0.75;0.47;;;;;;;13.34;56.00;101071.94;4997072;28;20066;-83
2022/04/22 01:55:29;;;;;;;0.10;0.10;;;;;;;13.33;56.06;101072.84;5000277;28;20037;-83
2022/04/22 01:57:55;;;;;;;0.10;0.10;;;;;;;13.30;56.33;101067.63;4994774;28;20405;-83
2022/04/22 02:00:21;;;;;;;0.08;0.08;;;;;;;13.26;56.33;101067.69;4994091;28;20073;-83
2022/04/22 02:02:48;;;;;;;0.00;0.00;;;;;;;13.24;56.69;101064.19;4996798;28;20113;-83
2022/04/22 02:05:14;;;;;;;0.10;0.10;;;;;;;13.21;56.98;101061.63;5002476;28;20034;-84
2022/04/22 02:07:41;;;;;;;0.10;0.10;;;;;;;13.19;56.97;101062.59;5005948;28;20612;-82
2022/04/22 02:10:09;;;;;;;0.52;0.52;;;;;;;13.16;56.94;101063.53;5012614;28;20033;-83
2022/04/22 02:12:35;;;;;;;0.10;0.10;;;;;;;13.14;56.61;101059.19;5006341;28;20034;-83
2022/04/22 02:15:01;;;;;;;0.10;0.10;;;;;;;13.10;56.49;101058.38;5003384;28;20027;-82
2022/04/22 02:17:28;;;;;;;0.80;0.80;;;;;;;13.04;56.87;101051.44;5002763;28;20034;-83
2022/04/22 02:19:54;;;;;;;0.30;0.30;;;;;;;12.98;57.07;101053.41;5007690;28;20034;-83
2022/04/22 02:22:22;;;;;;;0.45;0.45;;;;;;;12.94;57.38;101053.47;5010028;28;20038;-82
2022/04/22 02:24:49;;;;;;;0.10;0.10;;;;;;;12.92;56.99;101043.78;5004036;28;20038;-82
2022/04/22 02:30:01;;;;;;;0.10;0.10;;;;;;;12.84;57.42;101046.66;5007114;28;20049;-83
2022/04/22 02:32:27;;;;;;;2.05;0.47;;;;;;;12.82;57.76;101042.28;5010525;28;20034;-82
2022/04/22 02:34:53;;;;;;;0.10;0.10;;;;;;;12.77;57.40;101040.63;5007055;28;20473;-82
2022/04/22 02:37:20;;;;;;;0.40;0.40;;;;;;;12.76;57.63;101048.63;5008800;28;20041;-82
2022/04/22 02:39:46;;;;;;;0.00;0.00;;;;;;;12.72;57.34;101039.00;4998060;28;20033;-83
2022/04/22 02:45:30;;;;;;;0.20;0.20;;;;;;;12.70;58.47;101044.34;4998455;28;20053;-83
2022/04/22 02:47:44;;;;;;;0.10;0.10;;;;;;;12.71;58.69;101045.22;5007739;28;20045;-83
2022/04/22 02:50:10;;;;;;;0.20;0.20;;;;;;;12.74;57.41;101039.84;4998438;28;20092;-83
2022/04/22 02:52:37;;;;;;;0.40;0.40;;;;;;;12.75;57.08;101041.59;4998671;28;20117;-83
2022/04/22 02:55:03;;;;;;;0.10;0.10;;;;;;;12.76;56.83;101040.66;4997596;28;20044;-82
2022/04/22 02:57:29;;;;;;;0.10;0.10;;;;;;;12.75;57.21;101037.13;5010323;28;20029;-83
2022/04/22 02:59:56;;;;;;;0.10;0.10;;;;;;;12.73;57.81;101043.41;5009960;28;20034;-83
2022/04/22 03:02:22;;;;;;;0.00;0.00;;;;;;;12.72;57.95;101036.34;5001696;28;20087;-83
2022/04/22 03:04:48;;;;;;;0.10;0.10;;;;;;;12.70;57.61;101043.50;5006852;28;20034;-83
2022/04/22 03:07:14;;;;;;;0.10;0.10;;;;;;;12.65;58.41;101034.75;5000993;28;20022;-83
2022/04/22 03:09:41;;;;;;;0.00;0.00;;;;;;;12.65;57.27;101030.31;4997118;28;20064;-82
2022/04/22 03:12:08;;;;;;;0.00;0.00;;;;;;;12.64;57.41;101033.03;4997693;28;20126;-82
2022/04/22 03:14:34;;;;;;;0.17;0.17;;;;;;;12.62;58.90;101025.94;5001203;28;20057;-83
2022/04/22 03:17:00;;;;;;;0.10;0.10;;;;;;;12.64;58.12;101022.38;5002894;28;20557;-83
2022/04/22 03:19:26;;;;;;;0.10;0.05;;;;;;;12.61;58.48;101033.94;5002269;28;20057;-82
2022/04/22 03:21:52;;;;;;;0.10;0.10;;;;;;;12.60;58.57;101025.09;4999072;28;20043;-83
2022/04/22 03:24:18;;;;;;;0.00;0.00;;;;;;;12.62;57.55;101025.06;5006177;28;20038;-83
2022/04/22 03:26:44;;;;;;;0.10;0.10;;;;;;;12.61;57.93;101023.31;4998238;28;20045;-82
2022/04/22 03:29:10;;;;;;;0.08;0.08;;;;;;;12.59;58.57;101014.53;4997596;28;20119;-84
2022/04/22 03:31:37;;;;;;;0.10;0.10;;;;;;;12.58;58.92;101018.09;4997809;28;20030;-82
2022/04/22 03:34:03;;;;;;;0.10;0.10;;;;;;;12.57;58.93;101019.88;4998287;28;20129;-83
2022/04/22 03:36:29;;;;;;;0.00;0.00;;;;;;;12.56;58.08;101015.47;5002113;28;20081;-82
2022/04/22 03:38:55;;;;;;;0.00;0.00;;;;;;;12.54;58.56;101011.13;4995427;28;20057;-82
2022/04/22 03:41:21;;;;;;;0.32;0.30;;;;;;;12.54;58.39;101022.59;4995736;28;20042;-83
2022/04/22 03:43:47;;;;;;;0.00;0.00;;;;;;;12.52;57.85;101019.09;4995330;28;20037;-83
2022/04/22 03:46:13;;;;;;;0.90;0.70;;;;;;;12.50;58.62;101014.75;4996885;28;20630;-83
2022/04/22 03:48:40;;;;;;;0.10;0.10;;;;;;;12.44;59.19;101016.63;4996902;28;20159;-83
2022/04/22 03:51:06;;;;;;;0.10;0.10;;;;;;;12.43;59.74;101020.19;5004909;28;20031;-83
2022/04/22 03:53:36;;;;;;;0.45;0.45;;;;;;;12.41;60.72;101021.16;5005550;28;20054;-83
2022/04/22 03:58:50;;;;;;;0.10;0.10;;;;;;;12.40;59.56;101014.09;4992601;28;20402;-83
2022/04/22 04:01:16;;;;;;;0.03;0.03;;;;;;;12.41;59.48;101015.84;4996086;28;20034;-82
2022/04/22 04:03:43;;;;;;;0.10;0.10;;;;;;;12.39;60.92;101013.22;5000435;28;20046;-82
2022/04/22 04:06:09;;;;;;;0.10;0.10;;;;;;;12.40;60.37;101016.75;4998168;28;20037;-83
2022/04/22 04:08:35;;;;;;;0.10;0.10;;;;;;;12.33;61.09;101013.38;4998747;28;20054;-83
2022/04/22 04:16:25;;;;;;;0.10;0.10;;;;;;;12.32;60.35;101010.78;5124347;27;20646;-77
2022/04/22 04:18:51;;;;;;;0.10;0.10;;;;;;;12.33;61.28;101012.53;5089563;28;20036;-78
2022/04/22 04:26:31;;;;;;;0.05;0.05;;;;;;;12.38;61.67;101008.81;5088210;28;20048;-78
2022/04/22 04:28:58;;;;;;;0.00;0.00;;;;;;;12.40;61.43;101011.44;5090097;28;20082;-79
2022/04/22 04:31:24;;;;;;;0.85;0.85;;;;;;;12.41;61.82;101016.72;5085642;28;20504;-77
2022/04/22 04:33:51;;;;;;;0.00;0.00;;;;;;;12.42;60.60;101012.28;5089961;28;20029;-77
2022/04/22 04:36:17;;;;;;;0.00;0.00;;;;;;;12.42;61.75;101006.97;5091307;28;20060;-77
2022/04/22 04:38:43;;;;;;;0.00;0.00;;;;;;;12.41;60.55;101010.53;5091799;28;20119;-76
2022/04/22 04:41:12;;;;;;;0.15;0.15;;;;;;;12.45;60.64;101017.53;5089784;28;20036;-77
2022/04/22 04:43:39;;;;;;;0.10;0.10;;;;;;;12.43;60.19;101020.19;5090921;28;20028;-77
2022/04/22 04:46:06;;;;;;;0.00;0.00;;;;;;;12.46;59.23;101027.22;5089847;28;20024;-79
2022/04/22 04:48:34;;;;;;;0.30;0.30;;;;;;;12.47;60.39;101023.66;5090212;28;20028;-77
2022/04/22 04:51:00;;;;;;;0.10;0.10;;;;;;;12.52;60.16;101024.41;5089458;28;20509;-77
2022/04/22 04:53:26;;;;;;;0.85;0.85;;;;;;;12.56;60.48;101035.84;5088963;28;20070;-78
2022/04/22 04:55:53;;;;;;;0.00;0.00;;;;;;;12.60;59.99;101025.09;5087975;28;20085;-78
2022/04/22 04:58:20;;;;;;;0.17;0.17;;;;;;;12.70;59.89;101023.09;5093090;28;20104;-76
2022/04/22 05:00:47;;;;;;;0.10;0.10;;;;;;;12.75;60.95;101015.00;5100382;28;20052;-76
2022/04/22 05:03:13;;;;;;;0.00;0.00;;;;;;;12.81;60.94;101020.16;5095207;28;20047;-77
2022/04/22 05:05:40;;;;;;;0.10;0.10;;;;;;;12.84;60.22;101014.75;5091320;28;20024;-76
2022/04/22 05:08:07;;;;;;;0.10;0.10;;;;;;;12.88;60.24;101011.06;5092296;28;20067;-77
2022/04/22 05:10:35;;;;;;;0.10;0.10;;;;;;;12.84;61.56;101014.75;5087972;28;20024;-77
2022/04/22 05:13:03;;;;;;;0.20;0.20;;;;;;;12.82;60.67;101013.03;5093139;28;20035;-77
2022/04/22 05:15:30;;;;;;;0.10;0.10;;;;;;;12.86;61.43;101017.34;5090674;28;20043;-78
2022/04/22 05:17:59;;;;;;;0.10;0.10;;;;;;;12.86;60.49;101026.22;5089704;28;20036;-78
2022/04/22 05:20:26;;;;;;;0.75;0.75;;;;;;;12.86;60.33;101018.25;5091077;28;20028;-77
2022/04/22 05:22:53;;;;;;;0.10;0.10;;;;;;;12.86;60.96;101020.91;5088302;28;20042;-78
2022/04/22 05:25:20;;;;;;;0.52;0.52;;;;;;;12.84;61.28;101013.88;5084329;28;20028;-77
2022/04/22 05:27:47;;;;;;;0.10;0.10;;;;;;;12.85;61.10;101019.16;5075349;28;20039;-78
2022/04/22 05:33:03;;;;;;;0.10;0.10;;;;;;;12.89;60.13;101012.81;5071145;28;20039;-78
2022/04/22 05:35:29;;;;;;;0.10;0.10;;;;;;;12.84;61.15;101014.75;5071078;28;20024;-78
2022/04/22 05:37:57;;;;;;;0.08;0.08;;;;;;;12.86;60.38;101023.56;5068106;28;20040;-78
2022/04/22 05:40:27;;;;;;;0.00;0.00;;;;;;;12.87;61.67;101008.47;5070541;28;20048;-79
2022/04/22 05:42:55;;;;;;;0.10;0.10;;;;;;;12.84;61.50;101016.53;5073379;28;20028;-78
2022/04/22 05:45:23;;;;;;;0.03;0.03;;;;;;;12.90;60.39;101019.03;5076500;28;20074;-77
2022/04/22 05:47:51;;;;;;;0.22;0.22;;;;;;;12.93;60.61;101016.28;5076502;28;20052;-79
2022/04/22 05:50:18;;;;;;;0.03;0.03;;;;;;;12.99;60.17;101025.88;5077208;28;20029;-77
2022/04/22 05:52:45;;;;;;;0.20;0.20;;;;;;;13.01;61.00;101021.38;5071322;28;20031;-77
2022/04/22 05:55:17;;;;;;;0.00;0.00;;;;;;;13.06;61.22;101024.78;5074434;28;20486;-76
2022/04/22 05:57:44;;;;;;;0.17;0.17;;;;;;;13.04;60.50;101023.97;5077622;28;20421;-77
2022/04/22 06:00:13;;;;;;;0.03;0.03;;;;;;;13.07;61.36;101029.19;5076175;28;20032;-77
2022/04/22 06:02:44;;;;;;;0.10;0.10;;;;;;;13.13;60.45;101036.16;5078553;28;20042;-77
2022/04/22 06:05:12;;;;;;;0.05;0.05;;;;;;;13.15;61.46;101019.22;5079538;28;20020;-77
2022/04/22 06:07:39;;;;;;;1.75;0.70;;;;;;;13.19;60.65;101028.84;5077837;28;20032;-77
2022/04/22 06:10:37;;;;;;;0.00;0.00;;;;;;;13.19;61.54;101023.53;5078157;28;20028;-76
2022/04/22 06:12:53;;;;;;;0.00;0.00;;;;;;;13.24;60.39;101021.63;5074011;28;20039;-78
2022/04/22 06:15:19;;;;;;;0.10;0.10;;;;;;;13.29;60.46;101015.31;5078223;28;20048;-77
2022/04/22 06:17:46;;;;;;;0.10;0.10;;;;;;;13.35;60.01;101020.47;5078118;28;20502;-77
2022/04/22 06:20:12;;;;;;;0.10;0.10;;;;;;;13.34;60.96;101022.22;5077485;28;20036;-78
2022/04/22 06:22:38;;;;;;;1.75;1.65;;;;;;;13.35;60.70;101021.31;5081246;28;20109;-76
2022/04/22 06:25:05;;;;;;;0.10;0.10;;;;;;;13.45;59.87;101013.13;5080968;28;20021;-76
2022/04/22 06:27:34;;;;;;;0.10;0.10;;;;;;;13.49;60.16;101001.44;5077337;28;20031;-75
2022/04/22 06:30:07;;;;;;;0.13;0.13;;;;;;;13.54;61.03;101010.16;5076998;28;20024;-76
2022/04/22 06:32:33;;;;;;;0.00;0.00;;;;;;;13.55;60.03;101007.47;5061612;28;20058;-76
2022/04/22 06:34:59;;;;;;;0.47;0.47;;;;;;;13.65;59.97;101005.38;5070614;28;20025;-77
2022/04/22 06:37:27;;;;;;;0.03;0.03;;;;;;;13.68;60.01;101004.44;5074609;28;20037;-76
2022/04/22 06:45:59;;;;;;;0.25;0.25;;;;;;;13.81;60.17;100992.47;5070779;28;20033;-75
2022/04/22 06:48:14;;;;;;;0.38;0.38;;;;;;;13.86;59.43;100998.53;5069230;28;20138;-74
2022/04/22 06:50:41;;;;;;;1.13;1.13;;;;;;;13.89;59.76;100998.47;5074733;28;20024;-75
2022/04/22 06:53:09;;;;;;;0.10;0.10;;;;;;;13.94;59.48;100997.44;5067106;28;20024;-76
2022/04/22 06:55:36;;;;;;;0.98;0.38;;;;;;;13.97;59.33;100992.00;5072997;28;20054;-75
2022/04/22 06:58:05;;;;;;;0.10;0.10;;;;;;;14.03;59.75;100994.47;5066747;28;20071;-77
2022/04/22 07:00:31;;;;;;;0.10;0.10;;;;;;;14.11;59.62;100984.44;5072294;28;20422;-77
2022/04/22 07:02:57;;;;;;;0.32;0.32;;;;;;;14.15;59.64;100986.06;5069316;28;20032;-77
2022/04/22 07:05:24;;;;;;;0.00;0.00;;;;;;;14.17;59.23;100997.56;5071164;28;20037;-77
2022/04/22 07:07:50;;;;;;;0.10;0.10;;;;;;;14.21;59.41;100988.53;5074990;28;20032;-77
2022/04/22 07:10:16;;;;;;;0.73;0.73;;;;;;;14.28;59.13;100985.66;5076150;28;20040;-77
2022/04/22 07:12:43;;;;;;;0.13;0.13;;;;;;;14.35;58.87;100989.88;5074957;28;20028;-76
2022/04/22 07:15:10;;;;;;;0.08;0.08;;;;;;;14.41;58.63;100997.66;5074025;28;20023;-77
2022/04/22 07:17:37;;;;;;;0.00;0.00;;;;;;;14.46;58.48;101001.06;5074196;28;20047;-77
2022/04/22 07:20:09;;;;;;;0.10;0.10;;;;;;;14.50;58.03;100991.16;5075320;28;20025;-77
2022/04/22 07:22:37;;;;;;;0.10;0.10;;;;;;;14.55;57.64;100987.41;5075088;28;20021;-77
2022/04/22 07:25:05;;;;;;;0.10;0.10;;;;;;;14.61;57.46;100988.13;5068391;28;20028;-77
2022/04/22 07:27:34;;;;;;;0.75;0.75;;;;;;;14.66;57.52;100986.22;5066047;28;20025;-78
2022/04/22 07:30:01;;;;;;;0.00;0.00;;;;;;;14.75;57.55;100988.53;5069272;28;20017;-78
2022/04/22 07:32:27;;;;;;;0.32;0.32;;;;;;;14.75;57.77;100991.19;5074185;28;20054;-77
2022/04/22 07:34:54;;;;;;;0.00;0.00;;;;;;;14.87;57.35;100988.09;5073387;28;20024;-77
2022/04/22 07:37:21;;;;;;;0.28;0.28;;;;;;;14.98;57.54;100986.88;5069259;28;20040;-77
2022/04/22 07:39:48;;;;;;;0.30;0.30;;;;;;;15.06;57.32;100989.25;5053528;28;20040;-77
2022/04/22 07:42:17;;;;;;;0.10;0.10;;;;;;;15.12;56.81;100981.88;5072849;28;20039;-77
2022/04/22 07:47:36;;;;;;;0.32;0.32;;;;;;;15.26;56.34;100977.84;5074783;28;20401;-77
2022/04/22 07:50:05;;;;;;;0.05;0.05;;;;;;;15.30;56.16;100975.00;5075000;28;20029;-77
2022/04/22 07:52:34;;;;;;;1.35;0.93;;;;;;;15.39;56.16;100976.44;5075880;28;20028;-76
2022/04/22 07:55:00;;;;;;;0.17;0.17;;;;;;;15.41;55.82;100979.91;5077913;28;20027;-78
2022/04/22 07:57:28;;;;;;;0.00;0.00;;;;;;;15.48;55.78;100978.75;5075317;28;20525;-78
2022/04/22 07:59:54;;;;;;;0.75;0.75;;;;;;;15.61;55.70;100970.28;5075613;28;20092;-77
2022/04/22 08:02:21;;;;;;;0.00;0.00;;;;;;;15.64;55.23;100975.50;5074053;28;20067;-77
2022/04/22 08:04:47;;;;;;;9.32;1.35;;;;;;;15.73;55.17;100976.94;5075609;28;20077;-77
2022/04/22 08:07:15;;;;;;;0.20;0.20;;;;;;;15.83;55.10;100978.34;5073107;28;20028;-77
2022/04/22 08:09:41;;;;;;;0.52;0.52;;;;;;;15.90;54.74;100973.63;5064897;28;20029;-77
2022/04/22 08:12:08;;;;;;;0.50;0.50;;;;;;;15.99;54.66;100962.56;5069240;28;20036;-77
2022/04/22 08:14:34;;;;;;;0.00;0.00;;;;;;;16.05;54.62;100972.13;5057453;28;20124;-77
2022/04/22 08:17:01;;;;;;;0.28;0.28;;;;;;;16.14;54.42;100975.28;5065869;28;20036;-77
2022/04/22 08:19:27;;;;;;;0.25;0.25;;;;;;;16.20;54.12;100967.94;5070227;28;20028;-77
2022/04/22 08:21:54;;;;;;;0.52;0.52;;;;;;;16.26;53.97;100965.03;5073689;28;20077;-76
2022/04/22 08:24:20;;;;;;;0.30;0.30;;;;;;;16.30;53.95;100961.31;5074086;28;20058;-77
2022/04/22 08:26:46;;;;;;;0.40;0.40;;;;;;;16.39;53.32;100963.56;5074205;28;20032;-77
2022/04/22 08:29:12;;;;;;;0.75;0.75;;;;;;;16.40;53.52;100954.63;5073580;28;20367;-77
2022/04/22 08:31:38;;;;;;;0.00;0.00;;;;;;;16.56;53.38;100953.94;5071360;28;20037;-77
2022/04/22 08:34:04;;;;;;;0.25;0.25;;;;;;;16.61;53.51;100947.47;5072322;28;20108;-77
2022/04/22 08:36:32;;;;;;;0.00;0.00;;;;;;;16.67;52.97;100930.28;5053689;28;20029;-78
2022/04/22 08:38:58;;;;;;;0.20;0.20;;;;;;;16.73;52.94;100935.34;5059487;28;20643;-78
2022/04/22 08:41:25;;;;;;;0.47;0.40;;;;;;;16.84;52.99;100936.72;5071267;28;20028;-77
2022/04/22 08:43:53;;;;;;;0.20;0.20;;;;;;;16.93;51.50;100939.00;5072469;28;20073;-77
2022/04/22 08:51:55;;;;;;;1.95;1.85;;;;;;;17.15;51.54;100920.13;5081810;28;20039;-76
2022/04/22 08:54:22;;;;;;;0.10;0.10;;;;;;;17.25;51.20;100909.88;5077514;28;20028;-76
2022/04/22 08:56:49;;;;;;;0.03;0.03;;;;;;;17.34;50.83;100917.47;5072816;28;20098;-77
2022/04/22 08:59:16;;;;;;;0.22;0.22;;;;;;;17.41;48.50;100915.38;5072642;28;20036;-77
2022/04/22 09:01:42;;;;;;;0.00;0.00;;;;;;;17.49;49.80;100910.50;5073743;28;20029;-77
2022/04/22 09:04:08;;;;;;;0.20;0.20;;;;;;;17.60;50.16;100908.19;5077016;28;20029;-77
2022/04/22 09:06:35;;;;;;;0.10;0.10;;;;;;;17.70;49.62;100908.59;5077399;28;20028;-77
2022/04/22 09:09:05;;;;;;;0.85;0.85;;;;;;;17.86;49.73;100895.31;5074649;28;20032;-77
2022/04/22 09:11:36;;;;;;;0.00;0.00;;;;;;;18.03;49.56;100897.19;5075409;28;20028;-78
2022/04/22 09:14:03;;;;;;;0.00;0.00;;;;;;;18.18;49.52;100895.56;5075668;28;20056;-78
2022/04/22 09:16:29;;;;;;;0.15;0.15;;;;;;;18.36;48.67;100896.41;5075293;28;20020;-77
2022/04/22 09:19:00;;;;;;;0.15;0.15;;;;;;;18.54;48.42;100891.00;5074763;28;20028;-76
2022/04/22 09:21:26;;;;;;;1.73;0.52;;;;;;;18.67;48.26;100886.75;5075046;28;20028;-76
2022/04/22 09:23:54;;;;;;;0.35;0.35;;;;;;;18.72;47.32;100881.13;5074126;28;20029;-77
2022/04/22 09:26:23;;;;;;;0.00;0.00;;;;;;;18.82;45.49;100874.31;5075901;28;20021;-77
2022/04/22 09:28:57;;;;;;;0.00;0.00;;;;;;;18.98;46.44;100874.38;5075583;28;20032;-77
2022/04/22 09:31:25;;;;;;;0.22;0.22;;;;;;;19.00;45.67;100871.59;5076161;28;20444;-77
2022/04/22 09:33:52;;;;;;;0.00;0.00;;;;;;;19.15;45.74;100875.25;5076731;28;20490;-77
2022/04/22 09:42:50;;;;;;;0.43;0.43;;;;;;;19.72;45.07;100862.13;5068352;28;20465;-77
2022/04/22 09:45:07;;;;;;;0.17;0.17;;;;;;;19.76;45.15;100851.22;5075784;28;20040;-78
2022/04/22 09:47:35;;;;;;;0.10;0.10;;;;;;;19.89;44.37;100860.34;5076394;28;20033;-77
2022/04/22 09:50:08;;;;;;;0.10;0.10;;;;;;;20.01;44.15;100854.22;5076158;28;20057;-77
2022/04/22 09:52:35;;;;;;;0.08;0.08;;;;;;;20.09;43.72;100844.81;5075917;28;20701;-79
2022/04/22 09:55:06;;;;;;;0.40;0.40;;;;;;;20.19;43.48;100843.31;5074871;28;20070;-78
2022/04/22 09:57:53;;;;;;;1.98;1.23;;;;;;;20.27;43.40;100838.31;5077366;28;20067;-78
2022/04/22 10:00:30;;;;;;;0.28;0.28;;;;;;;20.24;42.29;100838.53;5079424;28;20056;-78
2022/04/22 10:02:57;;;;;;;0.00;0.00;;;;;;;20.29;42.84;100835.56;5074987;28;20225;-78
2022/04/22 10:05:25;;;;;;;0.35;0.35;;;;;;;20.39;43.80;100836.72;5079692;28;20055;-77
2022/04/22 10:07:53;;;;;;;0.00;0.00;;;;;;;20.54;43.04;100834.91;5077961;28;20067;-77
2022/04/22 10:10:28;;;;;;;0.28;0.28;;;;;;;20.66;43.27;100849.41;5076351;28;20387;-77
2022/04/22 10:12:57;;;;;;;0.10;0.10;;;;;;;20.78;42.75;100826.28;5076067;28;20689;-77
2022/04/22 10:15:29;;;;;;;0.00;0.00;;;;;;;20.86;40.90;100829.38;5077207;28;20035;-78
2022/04/22 10:17:56;;;;;;;0.90;0.77;;;;;;;20.85;41.16;100836.56;5074552;28;20028;-78
2022/04/22 10:20:25;;;;;;;0.00;0.00;;;;;;;20.95;41.94;100827.91;5073948;28;20078;-76
2022/04/22 10:22:51;;;;;;;0.20;0.20;;;;;;;21.00;42.46;100826.63;5067597;28;20043;-77
2022/04/22 10:25:18;;;;;;;0.47;0.32;;;;;;;21.09;42.55;100821.63;5098677;22;20044;-84
2022/04/22 10:27:46;;;;;;;0.13;0.13;;;;;;;21.15;41.22;100823.94;5075413;28;20024;-84
2022/04/22 10:30:14;;;;;;;1.67;1.33;;;;;;;21.15;41.32;100827.47;5074682;28;20032;-84
2022/04/22 10:32:43;;;;;;;0.08;0.08;;;;;;;21.32;41.67;100823.69;5074596;28;20048;-85
2022/04/22 10:35:12;;;;;;;0.65;0.65;;;;;;;21.45;41.35;100825.56;5069822;28;20084;-83
2022/04/22 10:37:38;;;;;;;0.00;0.00;;;;;;;21.61;40.91;100815.53;5063906;28;20041;-84
2022/04/22 10:40:05;;;;;;;0.10;0.10;;;;;;;21.75;40.77;100816.44;5066446;28;20090;-84
2022/04/22 10:42:37;;;;;;;0.08;0.08;;;;;;;21.93;38.18;100809.78;5075464;28;20056;-84
2022/04/22 10:47:52;;;;;;;0.85;0.85;;;;;;;22.17;39.30;100806.38;5062055;28;20040;-83
2022/04/22 10:53:09;;;;;;;0.10;0.10;;;;;;;22.26;39.64;100808.41;5117760;27;20167;-79
2022/04/22 10:55:38;;;;;;;1.95;0.75;;;;;;;22.15;39.96;100802.91;5092049;28;20024;-78
2022/04/22 11:00:57;;;;;;;0.68;0.68;;;;;;;22.18;39.66;100797.31;5170028;27;101766;-78
2022/04/22 11:03:29;;;;;;;0.10;0.10;;;;;;;22.10;38.35;100799.66;5140160;27;20042;-81
2022/04/22 11:05:59;;;;;;;0.38;0.38;;;;;;;21.95;40.00;100794.34;5133101;27;20055;-80
2022/04/22 11:11:18;;;;;;;0.35;0.35;;;;;;;22.09;38.78;100785.31;5172468;27;100652;-77
2022/04/22 11:13:46;;;;;;;0.63;0.63;;;;;;;21.97;38.20;100787.03;5135252;27;20035;-76
2022/04/22 11:16:15;;;;;;;0.32;0.30;;;;;;;21.93;39.35;100793.59;5131786;27;20031;-78
2022/04/22 11:18:44;;;;;;;0.10;0.10;;;;;;;22.00;39.64;100780.56;5131393;27;20051;-79
2022/04/22 11:23:56;;;;;;;0.20;0.20;;;;;;;22.16;39.30;100779.47;5124845;27;20545;-84
2022/04/22 11:26:23;;;;;;;0.17;0.17;;;;;;;22.17;39.81;100774.00;5091745;28;20040;-84
2022/04/22 11:28:49;;;;;;;0.10;0.10;;;;;;;22.34;39.68;100785.41;5089360;28;20032;-83
2022/04/22 11:31:16;;;;;;;0.10;0.10;;;;;;;22.60;38.45;100770.97;5092201;28;20085;-83
2022/04/22 11:36:25;;;;;;;0.65;0.65;;;;;;;23.19;37.41;100776.66;5122025;27;20678;-80
2022/04/22 11:38:53;;;;;;;0.68;0.68;;;;;;;23.39;37.52;100772.44;5090150;28;20021;-80
2022/04/22 11:41:21;;;;;;;0.43;0.43;;;;;;;23.56;37.26;100777.47;5088603;28;20029;-81
2022/04/22 11:43:48;;;;;;;0.10;0.10;;;;;;;23.73;36.94;100769.91;5091130;28;20043;-80
2022/04/22 11:46:18;;;;;;;0.00;0.00;;;;;;;23.77;35.93;100768.69;5090298;28;20101;-81
2022/04/22 11:48:46;;;;;;;0.00;0.00;;;;;;;23.74;34.81;100771.63;5091894;28;20122;-79
2022/04/22 11:51:14;;;;;;;0.00;0.00;;;;;;;23.46;35.75;100765.59;5088615;28;20028;-77
2022/04/22 11:53:46;;;;;;;0.47;0.47;;;;;;;23.34;36.27;100764.72;5089839;28;20067;-80
2022/04/22 11:56:20;;;;;;;0.10;0.10;;;;;;;23.00;35.24;100777.13;5093282;28;20069;-81
2022/04/22 11:58:52;;;;;;;0.43;0.43;;;;;;;22.93;36.54;100765.94;5092500;28;20036;-80
2022/04/22 12:06:58;;;;;;;5.55;1.75;;;;;;;22.57;36.65;100765.78;5086450;28;20043;-79
2022/04/22 12:09:25;;;;;;;0.10;0.10;;;;;;;22.49;36.68;100768.16;5090119;28;20082;-79
2022/04/22 12:11:51;;;;;;;0.47;0.47;;;;;;;22.61;36.47;100766.41;5090645;28;20031;-80
2022/04/22 12:14:27;;;;;;;0.05;0.05;;;;;;;22.93;35.57;100750.56;5091966;28;20123;-80
2022/04/22 12:16:58;;;;;;;0.10;0.10;;;;;;;23.15;35.30;100748.09;5090953;28;20036;-80
2022/04/22 12:19:26;;;;;;;0.73;0.65;;;;;;;23.20;35.74;100746.84;5083805;28;20499;-80
2022/04/22 12:21:53;;;;;;;0.20;0.20;;;;;;;23.16;34.16;100747.16;5095737;28;20037;-80
2022/04/22 12:24:21;;;;;;;0.45;0.45;;;;;;;23.14;35.28;100739.16;5090491;28;20031;-78
2022/04/22 12:26:47;;;;;;;0.30;0.25;;;;;;;23.09;35.20;100741.31;5080781;28;20476;-78
2022/04/22 12:29:16;;;;;;;0.05;0.05;;;;;;;23.20;35.53;100738.72;5087779;28;20550;-78
2022/04/22 12:31:44;;;;;;;0.20;0.20;;;;;;;23.37;35.75;100737.44;5084274;28;20059;-79
2022/04/22 12:34:12;;;;;;;0.10;0.10;;;;;;;23.59;34.57;100733.09;5078633;28;20036;-79
2022/04/22 12:36:55;;;;;;;0.00;0.00;;;;;;;23.92;34.96;100722.50;5088585;28;20062;-79